| time (UTC) | temp F | wind direction | speed knots | gust knots | rain 1hr in | rain 24hr in | rain mn in | humidity % | barometer mb |
| 20260906200505 | 91 | 123 | 7.8 | 0.0 | 0.00 | 0.00 | 0.00 | 41 | 1008.2 |
| 20260906200212 | 92 | 40 | 3.5 | 0.0 | 0.00 | 0.00 | 0.00 | 39 | 1008.6 |
| 20260906195505 | 92 | 145 | 3.5 | 0.0 | 0.00 | 0.00 | 0.00 | 41 | 1008.6 |
| 20260906195005 | 92 | 167 | 7.8 | 0.0 | 0.00 | 0.00 | 0.00 | 40 | 1008.6 |
| 20260906194505 | 92 | 118 | 7.8 | 0.0 | 0.00 | 0.00 | 0.00 | 41 | 1008.9 |
| 20260906194005 | 91 | 130 | 3.5 | 0.0 | 0.00 | 0.00 | 0.00 | 41 | 1008.9 |
| 20260906193505 | 91 | 69 | 3.5 | 0.0 | 0.00 | 0.00 | 0.00 | 42 | 1008.9 |
| 20260906193005 | 91 | 80 | 0.0 | 0.0 | 0.00 | 0.00 | 0.00 | 43 | 1008.9 |
| 20260906192505 | 91 | 148 | 3.5 | 0.0 | 0.00 | 0.00 | 0.00 | 42 | 1008.9 |
| 20260906192005 | 92 | 93 | 3.5 | 0.0 | 0.00 | 0.00 | 0.00 | 41 | 1008.9 |
| 20260906191505 | 92 | 83 | 3.5 | 0.0 | 0.00 | 0.00 | 0.00 | 41 | 1008.9 |
| 20260906191004 | 92 | 141 | 20.0 | 0.0 | 0.00 | 0.00 | 0.00 | 41 | 1009.3 |
| 20260906190713 | 92 | 144 | 11.3 | 0.0 | 0.00 | 0.00 | 0.00 | 43 | 1008.9 |
| 20260906190212 | 92 | 111 | 0.0 | 0.0 | 0.00 | 0.00 | 0.00 | 42 | 1009.3 |
| 20260906185505 | 91 | 179 | 3.5 | 0.0 | 0.00 | 0.00 | 0.00 | 44 | 1009.3 |
| 20260906185005 | 92 | 17 | 0.0 | 0.0 | 0.00 | 0.00 | 0.00 | 43 | 1009.9 |
| 20260906184505 | 89 | 138 | 11.3 | 0.0 | 0.00 | 0.00 | 0.00 | 45 | 1009.6 |
| 20260906184005 | 89 | 174 | 15.6 | 0.0 | 0.00 | 0.00 | 0.00 | 46 | 1009.6 |
| 20260906183505 | 90 | 142 | 3.5 | 0.0 | 0.00 | 0.00 | 0.00 | 47 | 1009.6 |
| 20260906183005 | 89 | 164 | 3.5 | 0.0 | 0.00 | 0.00 | 0.00 | 47 | 1009.9 |
| 20260906182505 | 89 | 92 | 7.8 | 0.0 | 0.00 | 0.00 | 0.00 | 46 | 1009.9 |
| 20260906182005 | 89 | 58 | 0.0 | 0.0 | 0.00 | 0.00 | 0.00 | 48 | 1009.9 |
| 20260906181505 | 89 | 143 | 7.8 | 0.0 | 0.00 | 0.00 | 0.00 | 46 | 1010.3 |
| 20260906181005 | 90 | 124 | 7.8 | 0.0 | 0.00 | 0.00 | 0.00 | 46 | 1010.3 |
| 20260906180505 | 89 | 164 | 11.3 | 0.0 | 0.00 | 0.00 | 0.00 | 48 | 1010.3 |
| 20260906180005 | 89 | 122 | 7.8 | 0.0 | 0.00 | 0.00 | 0.00 | 48 | 1010.3 |
| 20260906175505 | 90 | 261 | 11.3 | 0.0 | 0.00 | 0.00 | 0.00 | 45 | 1010.3 |
| 20260906175005 | 90 | 179 | 0.0 | 0.0 | 0.00 | 0.00 | 0.00 | 47 | 1010.6 |
| 20260906174712 | 89 | 117 | 11.3 | 0.0 | 0.00 | 0.00 | 0.00 | 49 | 1010.6 |
| 20260906174005 | 90 | 183 | 3.5 | 0.0 | 0.00 | 0.00 | 0.00 | 47 | 1010.3 |
| 20260906173505 | 89 | 102 | 3.5 | 0.0 | 0.00 | 0.00 | 0.00 | 48 | 1010.6 |
| 20260906173005 | 91 | 20 | 7.8 | 0.0 | 0.00 | 0.00 | 0.00 | 48 | 1010.6 |
| 20260906172505 | 90 | 128 | 3.5 | 0.0 | 0.00 | 0.00 | 0.00 | 48 | 1011.0 |
| 20260906172005 | 89 | 191 | 7.8 | 0.0 | 0.00 | 0.00 | 0.00 | 49 | 1011.3 |
| 20260906171505 | 90 | 158 | 23.5 | 0.0 | 0.00 | 0.00 | 0.00 | 49 | 1011.0 |
| 20260906171005 | 90 | 137 | 11.3 | 0.0 | 0.00 | 0.00 | 0.00 | 49 | 1011.0 |
| 20260906170505 | 90 | 315 | 3.5 | 0.0 | 0.00 | 0.00 | 0.00 | 48 | 1011.0 |
| 20260906170005 | 89 | 195 | 7.8 | 0.0 | 0.00 | 0.00 | 0.00 | 50 | 1011.3 |
| 20260906165505 | 88 | 169 | 15.6 | 0.0 | 0.00 | 0.00 | 0.00 | 52 | 1011.0 |
| 20260906165005 | 89 | 187 | 11.3 | 0.0 | 0.00 | 0.00 | 0.00 | 52 | 1011.3 |
| 20260906164505 | 89 | 113 | 7.8 | 0.0 | 0.00 | 0.00 | 0.00 | 51 | 1011.3 |
| 20260906164005 | 89 | 135 | 7.8 | 0.0 | 0.00 | 0.00 | 0.00 | 53 | 1011.3 |
| 20260906163504 | 87 | 187 | 15.6 | 0.0 | 0.00 | 0.00 | 0.00 | 54 | 1011.3 |
| 20260906163005 | 87 | 164 | 11.3 | 0.0 | 0.00 | 0.00 | 0.00 | 57 | 1011.3 |
| 20260906162505 | 87 | 162 | 7.8 | 0.0 | 0.00 | 0.00 | 0.00 | 56 | 1011.3 |
| 20260906162005 | 86 | 111 | 3.5 | 0.0 | 0.00 | 0.00 | 0.00 | 57 | 1011.3 |
| 20260906161505 | 86 | 152 | 11.3 | 0.0 | 0.00 | 0.00 | 0.00 | 56 | 1011.6 |
| 20260906161005 | 87 | 108 | 11.3 | 0.0 | 0.00 | 0.00 | 0.00 | 56 | 1011.6 |
| 20260906160505 | 86 | 159 | 20.0 | 0.0 | 0.00 | 0.00 | 0.00 | 56 | 1011.6 |
| 20260906160005 | 87 | 176 | 11.3 | 0.0 | 0.00 | 0.00 | 0.00 | 57 | 1011.6 |
| 20260906155711 | 86 | 77 | 3.5 | 0.0 | 0.00 | 0.00 | 0.00 | 59 | 1011.6 |
| 20260906155213 | 86 | 225 | 15.6 | 0.0 | 0.00 | 0.00 | 0.00 | 61 | 1011.3 |
| 20260906154505 | 87 | 124 | 7.8 | 0.0 | 0.00 | 0.00 | 0.00 | 59 | 1011.6 |
| 20260906154005 | 86 | 41 | 11.3 | 0.0 | 0.00 | 0.00 | 0.00 | 60 | 1011.3 |
| 20260906153505 | 86 | 82 | 7.8 | 0.0 | 0.00 | 0.00 | 0.00 | 60 | 1011.3 |
| 20260906153005 | 86 | 32 | 11.3 | 0.0 | 0.00 | 0.00 | 0.00 | 62 | 1011.3 |
| 20260906152505 | 86 | 51 | 11.3 | 0.0 | 0.00 | 0.00 | 0.00 | 63 | 1011.3 |
| 20260906152005 | 83 | 95 | 7.8 | 0.0 | 0.00 | 0.00 | 0.00 | 67 | 1011.3 |
| 20260906151505 | 84 | 134 | 15.6 | 0.0 | 0.00 | 0.00 | 0.00 | 68 | 1011.3 |
| 20260906151005 | 84 | 83 | 11.3 | 0.0 | 0.00 | 0.00 | 0.00 | 68 | 1011.3 |
| 20260906150505 | 84 | 121 | 11.3 | 0.0 | 0.00 | 0.00 | 0.00 | 69 | 1011.3 |
| 20260906150212 | 84 | 187 | 15.6 | 0.0 | 0.00 | 0.00 | 0.00 | 69 | 1011.3 |
| 20260906145505 | 83 | 146 | 0.0 | 0.0 | 0.00 | 0.00 | 0.00 | 72 | 1011.3 |
| 20260906145005 | 83 | 176 | 11.3 | 0.0 | 0.00 | 0.00 | 0.00 | 72 | 1011.3 |
| 20260906144711 | 82 | 130 | 7.8 | 0.0 | 0.00 | 0.00 | 0.00 | 74 | 1011.3 |
| 20260906144005 | 83 | 52 | 3.5 | 0.0 | 0.00 | 0.00 | 0.00 | 73 | 1011.3 |
| 20260906143505 | 83 | 107 | 3.5 | 0.0 | 0.00 | 0.00 | 0.00 | 73 | 1011.3 |
| 20260906143005 | 83 | 58 | 7.8 | 0.0 | 0.00 | 0.00 | 0.00 | 73 | 1011.3 |
| 20260906142505 | 82 | 179 | 7.8 | 0.0 | 0.00 | 0.00 | 0.00 | 76 | 1011.3 |
| 20260906142212 | 82 | 91 | 11.3 | 0.0 | 0.00 | 0.00 | 0.00 | 75 | 1011.3 |
| 20260906141504 | 82 | 133 | 7.8 | 0.0 | 0.00 | 0.00 | 0.00 | 76 | 1011.3 |
| 20260906141005 | 82 | 155 | 3.5 | 0.0 | 0.00 | 0.00 | 0.00 | 77 | 1011.3 |
| 20260906140505 | 82 | 14 | 3.5 | 0.0 | 0.00 | 0.00 | 0.00 | 78 | 1010.6 |
| 20260906140005 | 81 | 76 | 7.8 | 0.0 | 0.00 | 0.00 | 0.00 | 79 | 1011.0 |
| 20260906135505 | 80 | 112 | 0.0 | 0.0 | 0.00 | 0.00 | 0.00 | 80 | 1011.0 |
| 20260906135005 | 80 | 111 | 0.0 | 0.0 | 0.00 | 0.00 | 0.00 | 82 | 1011.0 |
| 20260906134505 | 80 | 106 | 3.5 | 0.0 | 0.00 | 0.00 | 0.00 | 83 | 1011.0 |
| 20260906134005 | 79 | 42 | 0.0 | 0.0 | 0.00 | 0.00 | 0.00 | 85 | 1011.0 |
| 20260906133505 | 78 | 90 | 0.0 | 0.0 | 0.00 | 0.00 | 0.00 | 86 | 1011.3 |
| 20260906133005 | 78 | 58 | 3.5 | 0.0 | 0.00 | 0.00 | 0.00 | 86 | 1011.0 |
| 20260906132712 | 78 | 111 | 0.0 | 0.0 | 0.00 | 0.00 | 0.00 | 86 | 1010.6 |
| 20260906132005 | 78 | 105 | 3.5 | 0.0 | 0.00 | 0.00 | 0.00 | 87 | 1010.6 |
| 20260906131712 | 77 | 120 | 0.0 | 0.0 | 0.00 | 0.00 | 0.00 | 88 | 1011.0 |
| 20260906131005 | 77 | 95 | 0.0 | 0.0 | 0.00 | 0.00 | 0.00 | 89 | 1011.0 |
| 20260906130505 | 77 | 66 | 0.0 | 0.0 | 0.00 | 0.00 | 0.00 | 90 | 1010.6 |
| 20260906130005 | 77 | 119 | 0.0 | 0.0 | 0.00 | 0.00 | 0.00 | 90 | 1010.6 |
| 20260906125712 | 77 | 100 | 0.0 | 0.0 | 0.00 | 0.00 | 0.00 | 91 | 1010.6 |
| 20260906125005 | 77 | 107 | 0.0 | 0.0 | 0.00 | 0.00 | 0.00 | 91 | 1010.6 |
| 20260906124505 | 76 | 112 | 0.0 | 0.0 | 0.00 | 0.00 | 0.00 | 91 | 1010.3 |
| 20260906124005 | 76 | 129 | 0.0 | 0.0 | 0.00 | 0.00 | 0.00 | 91 | 1010.3 |
| 20260906123505 | 76 | 82 | 0.0 | 0.0 | 0.00 | 0.00 | 0.00 | 92 | 1010.3 |
| 20260906123213 | 76 | 106 | 0.0 | 0.0 | 0.00 | 0.00 | 0.00 | 92 | 1010.3 |
| 20260906122505 | 76 | 106 | 0.0 | 0.0 | 0.00 | 0.00 | 0.00 | 91 | 1009.9 |
| 20260906122005 | 76 | 99 | 0.0 | 0.0 | 0.00 | 0.00 | 0.00 | 92 | 1009.9 |
| 20260906121505 | 76 | 117 | 0.0 | 0.0 | 0.00 | 0.00 | 0.00 | 92 | 1009.6 |
| 20260906121004 | 76 | 122 | 0.0 | 0.0 | 0.00 | 0.00 | 0.00 | 92 | 1009.9 |
| 20260906120505 | 75 | 103 | 0.0 | 0.0 | 0.00 | 0.00 | 0.00 | 92 | 1009.9 |
| 20260906120005 | 75 | 103 | 0.0 | 0.0 | 0.00 | 0.00 | 0.00 | 92 | 1009.9 |
| 20260906115505 | 75 | 119 | 0.0 | 0.0 | 0.00 | 0.00 | 0.00 | 91 | 1009.6 |
| 20260906115213 | 75 | 119 | 0.0 | 0.0 | 0.00 | 0.00 | 0.00 | 91 | 1009.6 |
| 20260906114505 | 76 | 119 | 0.0 | 0.0 | 0.00 | 0.00 | 0.00 | 91 | 1009.6 |
| 20260906114005 | 76 | 119 | 0.0 | 0.0 | 0.00 | 0.00 | 0.00 | 91 | 1009.6 |
| 20260906113505 | 76 | 101 | 0.0 | 0.0 | 0.00 | 0.00 | 0.00 | 91 | 1009.6 |
| 20260906113005 | 76 | 102 | 0.0 | 0.0 | 0.00 | 0.00 | 0.00 | 90 | 1009.6 |
| 20260906112505 | 76 | 100 | 0.0 | 0.0 | 0.00 | 0.00 | 0.00 | 90 | 1009.3 |
| 20260906112005 | 76 | 100 | 0.0 | 0.0 | 0.00 | 0.00 | 0.00 | 90 | 1009.3 |
| 20260906111505 | 76 | 54 | 0.0 | 0.0 | 0.00 | 0.00 | 0.00 | 90 | 1009.6 |
| 20260906111005 | 77 | 116 | 0.0 | 0.0 | 0.00 | 0.00 | 0.00 | 89 | 1009.6 |
| 20260906110505 | 77 | 97 | 0.0 | 0.0 | 0.00 | 0.00 | 0.00 | 89 | 1009.3 |
| 20260906110005 | 77 | 131 | 0.0 | 0.0 | 0.00 | 0.00 | 0.00 | 89 | 1009.3 |
| 20260906105505 | 77 | 115 | 0.0 | 0.0 | 0.00 | 0.00 | 0.00 | 89 | 1009.3 |
| 20260906105005 | 77 | 101 | 0.0 | 0.0 | 0.00 | 0.00 | 0.00 | 89 | 1009.3 |
| 20260906104505 | 77 | 107 | 0.0 | 0.0 | 0.00 | 0.00 | 0.00 | 88 | 1009.6 |
| 20260906104005 | 77 | 110 | 0.0 | 0.0 | 0.00 | 0.00 | 0.00 | 88 | 1008.9 |
| 20260906103505 | 77 | 120 | 0.0 | 0.0 | 0.00 | 0.00 | 0.00 | 88 | 1009.3 |
| 20260906103005 | 77 | 84 | 3.5 | 0.0 | 0.00 | 0.00 | 0.00 | 88 | 1009.3 |
| 20260906102505 | 77 | 96 | 3.5 | 0.0 | 0.00 | 0.00 | 0.00 | 88 | 1008.9 |
| 20260906102005 | 77 | 87 | 0.0 | 0.0 | 0.00 | 0.00 | 0.00 | 88 | 1008.9 |
| 20260906101505 | 77 | 77 | 0.0 | 0.0 | 0.00 | 0.00 | 0.00 | 88 | 1008.6 |
| 20260906101005 | 76 | 111 | 0.0 | 0.0 | 0.00 | 0.00 | 0.00 | 87 | 1008.9 |
| 20260906100505 | 76 | 103 | 0.0 | 0.0 | 0.00 | 0.00 | 0.00 | 87 | 1008.9 |
| 20260906100005 | 76 | 107 | 0.0 | 0.0 | 0.00 | 0.00 | 0.00 | 87 | 1008.9 |
| 20260906095505 | 76 | 96 | 0.0 | 0.0 | 0.00 | 0.00 | 0.00 | 87 | 1008.9 |
| 20260906095006 | 76 | 61 | 3.5 | 0.0 | 0.00 | 0.00 | 0.00 | 87 | 1009.3 |
| 20260906094505 | 76 | 105 | 0.0 | 0.0 | 0.00 | 0.00 | 0.00 | 87 | 1008.9 |
| 20260906094004 | 76 | 102 | 0.0 | 0.0 | 0.00 | 0.00 | 0.00 | 87 | 1008.9 |
| 20260906093505 | 76 | 106 | 0.0 | 0.0 | 0.00 | 0.00 | 0.00 | 87 | 1008.9 |
| 20260906093005 | 76 | 63 | 3.5 | 0.0 | 0.00 | 0.00 | 0.00 | 87 | 1008.9 |
| 20260906092505 | 76 | 91 | 3.5 | 0.0 | 0.00 | 0.00 | 0.00 | 87 | 1008.9 |
| 20260906092005 | 76 | 82 | 0.0 | 0.0 | 0.00 | 0.00 | 0.00 | 87 | 1008.9 |
| 20260906091713 | 76 | 95 | 0.0 | 0.0 | 0.00 | 0.00 | 0.00 | 87 | 1008.9 |
| 20260906091212 | 76 | 115 | 0.0 | 0.0 | 0.00 | 0.00 | 0.00 | 87 | 1008.9 |
| 20260906090713 | 76 | 107 | 0.0 | 0.0 | 0.00 | 0.00 | 0.00 | 87 | 1009.3 |
| 20260906090006 | 76 | 110 | 0.0 | 0.0 | 0.00 | 0.00 | 0.00 | 87 | 1009.3 |
| 20260906085505 | 76 | 111 | 0.0 | 0.0 | 0.00 | 0.00 | 0.00 | 86 | 1009.3 |
| 20260906085005 | 76 | 113 | 0.0 | 0.0 | 0.00 | 0.00 | 0.00 | 86 | 1009.3 |
| 20260906084505 | 75 | 109 | 0.0 | 0.0 | 0.00 | 0.00 | 0.00 | 86 | 1008.9 |
| 20260906084212 | 75 | 118 | 0.0 | 0.0 | 0.00 | 0.00 | 0.00 | 86 | 1008.9 |
| 20260906083505 | 75 | 103 | 0.0 | 0.0 | 0.00 | 0.00 | 0.00 | 87 | 1009.3 |
| 20260906083005 | 75 | 114 | 0.0 | 0.0 | 0.00 | 0.00 | 0.00 | 86 | 1009.3 |
| 20260906082505 | 74 | 118 | 0.0 | 0.0 | 0.00 | 0.00 | 0.00 | 86 | 1009.6 |
| 20260906082005 | 74 | 118 | 0.0 | 0.0 | 0.00 | 0.00 | 0.00 | 86 | 1009.3 |
| 20260906081505 | 74 | 118 | 0.0 | 0.0 | 0.00 | 0.00 | 0.00 | 86 | 1009.6 |
| 20260906081005 | 74 | 118 | 0.0 | 0.0 | 0.00 | 0.00 | 0.00 | 85 | 1009.6 |
| 20260906080505 | 74 | 118 | 0.0 | 0.0 | 0.00 | 0.00 | 0.00 | 85 | 1009.6 |
| 20260906080211 | 74 | 118 | 0.0 | 0.0 | 0.00 | 0.00 | 0.00 | 85 | 1009.6 |
| 20260906075505 | 75 | 118 | 0.0 | 0.0 | 0.00 | 0.00 | 0.00 | 85 | 1009.9 |
| 20260906075005 | 75 | 118 | 0.0 | 0.0 | 0.00 | 0.00 | 0.00 | 86 | 1009.9 |
| 20260906074504 | 75 | 118 | 0.0 | 0.0 | 0.00 | 0.00 | 0.00 | 86 | 1009.9 |
| 20260906074006 | 75 | 118 | 0.0 | 0.0 | 0.00 | 0.00 | 0.00 | 86 | 1009.9 |
| 20260906073505 | 75 | 111 | 0.0 | 0.0 | 0.00 | 0.00 | 0.00 | 85 | 1010.3 |
| 20260906073004 | 75 | 111 | 0.0 | 0.0 | 0.00 | 0.00 | 0.00 | 85 | 1010.3 |
| 20260906072505 | 75 | 111 | 0.0 | 0.0 | 0.00 | 0.00 | 0.00 | 85 | 1010.3 |
| 20260906072005 | 75 | 111 | 0.0 | 0.0 | 0.00 | 0.00 | 0.00 | 85 | 1010.3 |
| 20260906071505 | 75 | 111 | 0.0 | 0.0 | 0.00 | 0.00 | 0.00 | 84 | 1010.3 |
| 20260906071005 | 75 | 111 | 0.0 | 0.0 | 0.00 | 0.00 | 0.00 | 84 | 1010.3 |
| 20260906070505 | 75 | 110 | 0.0 | 0.0 | 0.00 | 0.00 | 0.00 | 84 | 1010.3 |
| 20260906070005 | 75 | 110 | 0.0 | 0.0 | 0.00 | 0.00 | 0.00 | 83 | 1010.6 |
| 20260906065505 | 75 | 110 | 0.0 | 0.0 | 0.00 | 0.00 | 0.00 | 83 | 1010.6 |
| 20260906065005 | 76 | 110 | 0.0 | 0.0 | 0.00 | 0.00 | 0.00 | 83 | 1010.6 |
| 20260906064505 | 75 | 118 | 0.0 | 0.0 | 0.00 | 0.00 | 0.00 | 83 | 1011.0 |
| 20260906064006 | 75 | 144 | 0.0 | 0.0 | 0.00 | 0.00 | 0.00 | 84 | 1010.6 |
| 20260906063504 | 75 | 141 | 0.0 | 0.0 | 0.00 | 0.00 | 0.00 | 84 | 1011.0 |
| 20260906063005 | 75 | 117 | 0.0 | 0.0 | 0.00 | 0.00 | 0.00 | 84 | 1011.0 |
| 20260906062505 | 75 | 118 | 0.0 | 0.0 | 0.00 | 0.00 | 0.00 | 84 | 1010.6 |
| 20260906062005 | 75 | 116 | 0.0 | 0.0 | 0.00 | 0.00 | 0.00 | 84 | 1011.0 |
| 20260906061712 | 75 | 118 | 0.0 | 0.0 | 0.00 | 0.00 | 0.00 | 84 | 1011.0 |
| 20260906061005 | 75 | 169 | 3.5 | 0.0 | 0.00 | 0.00 | 0.00 | 84 | 1010.6 |
| 20260906060504 | 75 | 111 | 0.0 | 0.0 | 0.00 | 0.00 | 0.00 | 84 | 1010.6 |
| 20260906060005 | 75 | 119 | 0.0 | 0.0 | 0.00 | 0.00 | 0.00 | 84 | 1011.0 |
| 20260906055712 | 75 | 136 | 0.0 | 0.0 | 0.00 | 0.00 | 0.00 | 84 | 1011.0 |
| 20260906055213 | 75 | 135 | 0.0 | 0.0 | 0.00 | 0.00 | 0.00 | 83 | 1010.6 |
| 20260906054505 | 75 | 136 | 0.0 | 0.0 | 0.00 | 0.00 | 0.00 | 83 | 1011.0 |
| 20260906054005 | 75 | 116 | 0.0 | 0.0 | 0.00 | 0.00 | 0.00 | 83 | 1011.0 |
| 20260906053505 | 75 | 122 | 0.0 | 0.0 | 0.00 | 0.00 | 0.00 | 84 | 1011.0 |
| 20260906053005 | 75 | 122 | 0.0 | 0.0 | 0.00 | 0.00 | 0.00 | 83 | 1011.0 |
| 20260906052505 | 75 | 126 | 0.0 | 0.0 | 0.00 | 0.00 | 0.00 | 83 | 1011.0 |
| 20260906052005 | 75 | 123 | 0.0 | 0.0 | 0.00 | 0.00 | 0.00 | 83 | 1011.3 |
| 20260906051505 | 75 | 115 | 0.0 | 0.0 | 0.00 | 0.00 | 0.00 | 83 | 1011.6 |
| 20260906051005 | 75 | 117 | 0.0 | 0.0 | 0.00 | 0.00 | 0.00 | 83 | 1011.3 |
| 20260906050711 | 75 | 137 | 0.0 | 0.0 | 0.00 | 0.00 | 0.00 | 83 | 1011.3 |
| 20260906045505 | 76 | 114 | 0.0 | 0.0 | 0.00 | 0.00 | 0.00 | 82 | 1011.6 |
| 20260906045005 | 75 | 95 | 0.0 | 0.0 | 0.00 | 0.00 | 0.00 | 82 | 1011.6 |
| 20260906044505 | 75 | 147 | 0.0 | 0.0 | 0.00 | 0.00 | 0.00 | 82 | 1011.3 |
| 20260906044004 | 75 | 111 | 0.0 | 0.0 | 0.00 | 0.00 | 0.00 | 81 | 1011.0 |
| 20260906043505 | 75 | 120 | 0.0 | 0.0 | 0.00 | 0.00 | 0.00 | 81 | 1011.0 |
| 20260906043005 | 75 | 114 | 0.0 | 0.0 | 0.00 | 0.00 | 0.00 | 82 | 1011.3 |
| 20260906042505 | 76 | 118 | 0.0 | 0.0 | 0.00 | 0.00 | 0.00 | 82 | 1011.0 |
| 20260906042005 | 76 | 110 | 0.0 | 0.0 | 0.00 | 0.00 | 0.00 | 82 | 1011.3 |
| 20260906041505 | 76 | 135 | 0.0 | 0.0 | 0.00 | 0.00 | 0.00 | 81 | 1011.3 |
| 20260906041005 | 76 | 92 | 3.5 | 0.0 | 0.00 | 0.00 | 0.00 | 81 | 1011.3 |
| 20260906040505 | 76 | 69 | 7.8 | 0.0 | 0.00 | 0.00 | 0.00 | 80 | 1011.3 |
| 20260906040005 | 77 | 111 | 0.0 | 0.0 | 0.00 | 0.00 | 0.00 | 79 | 1011.0 |
| 20260906035505 | 77 | 90 | 0.0 | 0.0 | 0.00 | 0.00 | 0.00 | 77 | 1011.0 |
| 20260906035005 | 77 | 102 | 0.0 | 0.0 | 0.00 | 0.00 | 0.00 | 76 | 1011.0 |
| 20260906034711 | 77 | 129 | 0.0 | 0.0 | 0.00 | 0.00 | 0.00 | 75 | 1011.0 |
| 20260906034005 | 77 | 85 | 0.0 | 0.0 | 0.00 | 0.00 | 0.00 | 74 | 1010.6 |
| 20260906033713 | 77 | 94 | 3.5 | 0.0 | 0.00 | 0.00 | 0.00 | 73 | 1011.0 |
| 20260906033212 | 76 | 100 | 0.0 | 0.0 | 0.00 | 0.00 | 0.00 | 73 | 1011.3 |
| 20260906032505 | 76 | 142 | 0.0 | 0.0 | 0.00 | 0.00 | 0.00 | 73 | 1011.0 |
| 20260906032004 | 76 | 113 | 0.0 | 0.0 | 0.00 | 0.00 | 0.00 | 72 | 1011.0 |
| 20260906031505 | 76 | 117 | 3.5 | 0.0 | 0.00 | 0.00 | 0.00 | 72 | 1011.0 |
| 20260906031212 | 76 | 114 | 0.0 | 0.0 | 0.00 | 0.00 | 0.00 | 71 | 1011.3 |
| 20260906030505 | 76 | 116 | 3.5 | 0.0 | 0.00 | 0.00 | 0.00 | 72 | 1011.3 |
| 20260906030005 | 76 | 160 | 3.5 | 0.0 | 0.00 | 0.00 | 0.00 | 72 | 1011.3 |
| 20260906025505 | 76 | 140 | 3.5 | 0.0 | 0.00 | 0.00 | 0.00 | 72 | 1011.3 |
| 20260906025005 | 76 | 129 | 3.5 | 0.0 | 0.00 | 0.00 | 0.00 | 72 | 1011.3 |
| 20260906024505 | 76 | 204 | 15.6 | 0.0 | 0.00 | 0.00 | 0.00 | 74 | 1011.6 |
| 20260906024213 | 76 | 114 | 11.3 | 0.0 | 0.00 | 0.00 | 0.00 | 73 | 1011.6 |
| 20260906023504 | 77 | 149 | 11.3 | 0.0 | 0.00 | 0.00 | 0.00 | 72 | 1011.3 |
| 20260906023212 | 77 | 184 | 7.8 | 0.0 | 0.00 | 0.00 | 0.00 | 68 | 1011.3 |
| 20260906022505 | 77 | 119 | 7.8 | 0.0 | 0.00 | 0.00 | 0.00 | 67 | 1011.3 |
| 20260906022005 | 78 | 187 | 7.8 | 0.0 | 0.00 | 0.00 | 0.00 | 67 | 1011.6 |
| 20260906021504 | 79 | 207 | 23.5 | 0.0 | 0.00 | 0.00 | 0.00 | 67 | 1011.3 |
| 20260906021005 | 81 | 198 | 15.6 | 0.0 | 0.00 | 0.00 | 0.00 | 65 | 1011.3 |
| 20260906020505 | 83 | 234 | 20.0 | 0.0 | 0.00 | 0.00 | 0.00 | 65 | 1011.3 |
| 20260906020005 | 83 | 19 | 3.5 | 0.0 | 0.00 | 0.00 | 0.00 | 65 | 1010.6 |
| 20260906015505 | 83 | 98 | 3.5 | 0.0 | 0.00 | 0.00 | 0.00 | 65 | 1010.6 |
| 20260906015005 | 83 | 100 | 11.3 | 0.0 | 0.00 | 0.00 | 0.00 | 65 | 1010.3 |
| 20260906014712 | 83 | 42 | 11.3 | 0.0 | 0.00 | 0.00 | 0.00 | 65 | 1009.9 |
| 20260906014213 | 83 | 138 | 7.8 | 0.0 | 0.00 | 0.00 | 0.00 | 64 | 1009.6 |
| 20260906013505 | 83 | 139 | 3.5 | 0.0 | 0.00 | 0.00 | 0.00 | 64 | 1009.6 |
| 20260906013005 | 84 | 303 | 7.8 | 0.0 | 0.00 | 0.00 | 0.00 | 63 | 1009.3 |
| 20260906012505 | 84 | 166 | 3.5 | 0.0 | 0.00 | 0.00 | 0.00 | 63 | 1009.3 |
| 20260906012005 | 84 | 77 | 15.6 | 0.0 | 0.00 | 0.00 | 0.00 | 62 | 1009.3 |
| 20260906011712 | 84 | 9 | 7.8 | 0.0 | 0.00 | 0.00 | 0.00 | 61 | 1009.3 |
| 20260906011213 | 84 | 145 | 11.3 | 0.0 | 0.00 | 0.00 | 0.00 | 61 | 1008.9 |
| 20260906010712 | 85 | 103 | 15.6 | 0.0 | 0.00 | 0.00 | 0.00 | 61 | 1008.9 |
| 20260906010005 | 85 | 75 | 3.5 | 0.0 | 0.00 | 0.00 | 0.00 | 60 | 1008.9 |
| 20260906005505 | 85 | 94 | 7.8 | 0.0 | 0.00 | 0.00 | 0.00 | 59 | 1008.6 |
| 20260906005005 | 85 | 100 | 7.8 | 0.0 | 0.00 | 0.00 | 0.00 | 58 | 1008.6 |
| 20260906004505 | 86 | 35 | 3.5 | 0.0 | 0.00 | 0.00 | 0.00 | 58 | 1008.6 |
| 20260906004005 | 86 | 116 | 27.8 | 0.0 | 0.00 | 0.00 | 0.00 | 57 | 1008.6 |
| 20260906003505 | 86 | 40 | 7.8 | 0.0 | 0.00 | 0.00 | 0.00 | 56 | 1008.2 |
| 20260906003004 | 86 | 74 | 15.6 | 0.0 | 0.00 | 0.00 | 0.00 | 56 | 1008.2 |
| 20260906002712 | 86 | 6 | 11.3 | 0.0 | 0.00 | 0.00 | 0.00 | 55 | 1008.2 |
| 20260906002005 | 86 | 114 | 11.3 | 0.0 | 0.00 | 0.00 | 0.00 | 54 | 1007.9 |
| 20260906001504 | 86 | 139 | 7.8 | 0.0 | 0.00 | 0.00 | 0.00 | 53 | 1007.9 |
| 20260906001005 | 87 | 357 | 23.5 | 0.0 | 0.00 | 0.00 | 0.00 | 53 | 1007.9 |
| 20260906000505 | 87 | 79 | 15.6 | 0.0 | 0.00 | 0.00 | 0.00 | 52 | 1007.9 |
| 20260906000005 | 88 | 164 | 7.8 | 0.0 | 0.00 | 0.00 | 0.00 | 51 | 1007.6 |
| 20260905235505 | 88 | 86 | 7.8 | 0.0 | 0.00 | 0.00 | 0.00 | 50 | 1007.2 |
| 20260905235005 | 88 | 116 | 3.5 | 0.0 | 0.00 | 0.00 | 0.00 | 50 | 1006.9 |
| 20260905234505 | 88 | 84 | 20.0 | 0.0 | 0.00 | 0.00 | 0.00 | 50 | 1006.9 |
| 20260905234005 | 89 | 29 | 20.0 | 0.0 | 0.00 | 0.00 | 0.00 | 49 | 1006.9 |
| 20260905233505 | 89 | 50 | 7.8 | 0.0 | 0.00 | 0.00 | 0.00 | 49 | 1006.9 |
| 20260905233004 | 89 | 102 | 11.3 | 0.0 | 0.00 | 0.00 | 0.00 | 48 | 1006.9 |
| 20260905232505 | 89 | 70 | 15.6 | 0.0 | 0.00 | 0.00 | 0.00 | 48 | 1006.9 |
| 20260905232005 | 89 | 39 | 20.0 | 0.0 | 0.00 | 0.00 | 0.00 | 47 | 1006.9 |
| 20260905231505 | 90 | 5 | 11.3 | 0.0 | 0.00 | 0.00 | 0.00 | 46 | 1006.9 |
| 20260905231005 | 90 | 120 | 11.3 | 0.0 | 0.00 | 0.00 | 0.00 | 44 | 1006.9 |
| 20260905230505 | 90 | 44 | 20.0 | 0.0 | 0.00 | 0.00 | 0.00 | 44 | 1006.9 |
| 20260905230212 | 90 | 156 | 7.8 | 0.0 | 0.00 | 0.00 | 0.00 | 44 | 1006.5 |
| 20260905225505 | 91 | 41 | 20.0 | 0.0 | 0.00 | 0.00 | 0.00 | 44 | 1006.5 |
| 20260905225005 | 90 | 62 | 20.0 | 0.0 | 0.00 | 0.00 | 0.00 | 43 | 1006.2 |
| 20260905224504 | 91 | 356 | 7.8 | 0.0 | 0.00 | 0.00 | 0.00 | 43 | 1006.5 |
| 20260905224005 | 91 | 100 | 23.5 | 0.0 | 0.00 | 0.00 | 0.00 | 43 | 1006.5 |
| 20260905223505 | 91 | 83 | 15.6 | 0.0 | 0.00 | 0.00 | 0.00 | 42 | 1006.5 |
| 20260905223005 | 91 | 2 | 20.0 | 0.0 | 0.00 | 0.00 | 0.00 | 41 | 1006.2 |
| 20260905222505 | 92 | 62 | 11.3 | 0.0 | 0.00 | 0.00 | 0.00 | 41 | 1006.2 |
| 20260905222005 | 92 | 68 | 7.8 | 0.0 | 0.00 | 0.00 | 0.00 | 40 | 1006.2 |
| 20260905221505 | 92 | 48 | 11.3 | 0.0 | 0.00 | 0.00 | 0.00 | 40 | 1006.2 |
| 20260905221005 | 91 | 155 | 3.5 | 0.0 | 0.00 | 0.00 | 0.00 | 41 | 1006.2 |
| 20260905220504 | 92 | 44 | 11.3 | 0.0 | 0.00 | 0.00 | 0.00 | 39 | 1006.2 |
| 20260905220005 | 92 | 30 | 15.6 | 0.0 | 0.00 | 0.00 | 0.00 | 38 | 1006.2 |
| 20260905215713 | 92 | 100 | 15.6 | 0.0 | 0.00 | 0.00 | 0.00 | 37 | 1006.5 |
| 20260905215005 | 92 | 66 | 3.5 | 0.0 | 0.00 | 0.00 | 0.00 | 37 | 1006.2 |
| 20260905214505 | 92 | 90 | 11.3 | 0.0 | 0.00 | 0.00 | 0.00 | 36 | 1006.5 |
| 20260905214005 | 93 | 47 | 23.5 | 0.0 | 0.00 | 0.00 | 0.00 | 36 | 1006.5 |
| 20260905213505 | 93 | 141 | 3.5 | 0.0 | 0.00 | 0.00 | 0.00 | 36 | 1006.5 |
| 20260905213006 | 93 | 116 | 7.8 | 0.0 | 0.00 | 0.00 | 0.00 | 36 | 1006.9 |
| 20260905212712 | 92 | 125 | 7.8 | 0.0 | 0.00 | 0.00 | 0.00 | 37 | 1006.5 |
| 20260905212211 | 92 | 108 | 11.3 | 0.0 | 0.00 | 0.00 | 0.00 | 38 | 1006.5 |
| 20260905211505 | 92 | 163 | 11.3 | 0.0 | 0.00 | 0.00 | 0.00 | 38 | 1006.9 |
| 20260905211005 | 91 | 129 | 7.8 | 0.0 | 0.00 | 0.00 | 0.00 | 39 | 1006.9 |
| 20260905210505 | 92 | 104 | 7.8 | 0.0 | 0.00 | 0.00 | 0.00 | 39 | 1006.9 |
| 20260905210211 | 92 | 62 | 7.8 | 0.0 | 0.00 | 0.00 | 0.00 | 38 | 1006.9 |
| 20260905205505 | 92 | 43 | 11.3 | 0.0 | 0.00 | 0.00 | 0.00 | 38 | 1007.2 |
| 20260905205005 | 94 | 99 | 7.8 | 0.0 | 0.00 | 0.00 | 0.00 | 36 | 1007.2 |
| 20260905204712 | 93 | 8 | 15.6 | 0.0 | 0.00 | 0.00 | 0.00 | 37 | 1007.2 |
| 20260905204211 | 93 | 154 | 7.8 | 0.0 | 0.00 | 0.00 | 0.00 | 37 | 1007.6 |
| 20260905203505 | 92 | 78 | 11.3 | 0.0 | 0.00 | 0.00 | 0.00 | 37 | 1007.6 |
| 20260905203213 | 93 | 131 | 11.3 | 0.0 | 0.00 | 0.00 | 0.00 | 38 | 1007.2 |
| 20260905202505 | 93 | 136 | 15.6 | 0.0 | 0.00 | 0.00 | 0.00 | 37 | 1007.2 |
| 20260905202005 | 93 | 58 | 11.3 | 0.0 | 0.00 | 0.00 | 0.00 | 36 | 1007.6 |
| 20260905201505 | 92 | 83 | 3.5 | 0.0 | 0.00 | 0.00 | 0.00 | 38 | 1007.9 |
| 20260905201004 | 92 | 41 | 7.8 | 0.0 | 0.00 | 0.00 | 0.00 | 39 | 1007.9 |